sensor_id;sensor_type;location;lat;lon;timestamp;temperature;humidity
20091;DHT22;10205;49.678;6.560;2023-07-16T00:01:00;24.60;52.10
20091;DHT22;10205;49.678;6.560;2023-07-16T00:03:28;24.50;52.10
20091;DHT22;10205;49.678;6.560;2023-07-16T00:05:56;24.50;51.90
20091;DHT22;10205;49.678;6.560;2023-07-16T00:08:24;24.50;52.60
20091;DHT22;10205;49.678;6.560;2023-07-16T00:10:51;24.40;52.30
20091;DHT22;10205;49.678;6.560;2023-07-16T00:13:18;24.40;52.20
20091;DHT22;10205;49.678;6.560;2023-07-16T00:15:45;24.40;52.20
20091;DHT22;10205;49.678;6.560;2023-07-16T00:18:13;24.40;52.40
20091;DHT22;10205;49.678;6.560;2023-07-16T00:20:40;24.30;52.60
20091;DHT22;10205;49.678;6.560;2023-07-16T00:23:09;24.30;52.50
20091;DHT22;10205;49.678;6.560;2023-07-16T00:25:36;24.30;52.60
20091;DHT22;10205;49.678;6.560;2023-07-16T00:28:03;24.30;52.30
20091;DHT22;10205;49.678;6.560;2023-07-16T00:30:31;24.20;52.60
20091;DHT22;10205;49.678;6.560;2023-07-16T00:32:58;24.20;52.90
20091;DHT22;10205;49.678;6.560;2023-07-16T00:35:25;24.20;52.40
20091;DHT22;10205;49.678;6.560;2023-07-16T00:37:52;24.20;52.20
20091;DHT22;10205;49.678;6.560;2023-07-16T00:40:21;24.20;52.20
20091;DHT22;10205;49.678;6.560;2023-07-16T00:42:48;24.20;52.60
20091;DHT22;10205;49.678;6.560;2023-07-16T00:45:16;24.20;52.60
20091;DHT22;10205;49.678;6.560;2023-07-16T00:47:44;24.20;52.60
20091;DHT22;10205;49.678;6.560;2023-07-16T00:50:12;24.10;52.50
20091;DHT22;10205;49.678;6.560;2023-07-16T00:52:40;24.10;52.70
20091;DHT22;10205;49.678;6.560;2023-07-16T00:55:08;24.10;52.70
20091;DHT22;10205;49.678;6.560;2023-07-16T00:57:38;24.10;52.90
20091;DHT22;10205;49.678;6.560;2023-07-16T01:00:06;24.10;52.90
20091;DHT22;10205;49.678;6.560;2023-07-16T01:02:35;24.00;52.80
20091;DHT22;10205;49.678;6.560;2023-07-16T01:05:03;24.00;52.70
20091;DHT22;10205;49.678;6.560;2023-07-16T01:07:31;24.00;52.60
20091;DHT22;10205;49.678;6.560;2023-07-16T01:10:00;24.00;52.60
20091;DHT22;10205;49.678;6.560;2023-07-16T01:12:28;24.00;52.90
20091;DHT22;10205;49.678;6.560;2023-07-16T01:14:59;24.00;53.50
20091;DHT22;10205;49.678;6.560;2023-07-16T01:17:27;23.90;53.20
20091;DHT22;10205;49.678;6.560;2023-07-16T01:19:54;23.90;53.10
20091;DHT22;10205;49.678;6.560;2023-07-16T01:22:44;23.90;53.40
20091;DHT22;10205;49.678;6.560;2023-07-16T01:25:36;23.90;53.50
20091;DHT22;10205;49.678;6.560;2023-07-16T01:28:53;23.80;53.10
20091;DHT22;10205;49.678;6.560;2023-07-16T01:31:42;23.80;53.10
20091;DHT22;10205;49.678;6.560;2023-07-16T01:34:11;23.70;53.60
20091;DHT22;10205;49.678;6.560;2023-07-16T01:36:41;23.70;53.40
20091;DHT22;10205;49.678;6.560;2023-07-16T01:39:10;23.70;53.50
20091;DHT22;10205;49.678;6.560;2023-07-16T01:41:37;23.70;53.50
20091;DHT22;10205;49.678;6.560;2023-07-16T01:44:04;23.60;53.60
20091;DHT22;10205;49.678;6.560;2023-07-16T01:46:33;23.60;53.50
20091;DHT22;10205;49.678;6.560;2023-07-16T01:49:00;23.60;53.50
20091;DHT22;10205;49.678;6.560;2023-07-16T01:51:27;23.50;53.60
20091;DHT22;10205;49.678;6.560;2023-07-16T01:53:54;23.50;53.50
20091;DHT22;10205;49.678;6.560;2023-07-16T01:56:21;23.50;53.90
20091;DHT22;10205;49.678;6.560;2023-07-16T01:58:49;23.50;53.60
20091;DHT22;10205;49.678;6.560;2023-07-16T02:01:16;23.50;53.70
20091;DHT22;10205;49.678;6.560;2023-07-16T02:03:44;23.40;53.60
20091;DHT22;10205;49.678;6.560;2023-07-16T02:06:12;23.40;53.70
20091;DHT22;10205;49.678;6.560;2023-07-16T02:08:40;23.40;53.50
20091;DHT22;10205;49.678;6.560;2023-07-16T02:11:07;23.40;53.60
20091;DHT22;10205;49.678;6.560;2023-07-16T02:13:35;23.40;53.90
20091;DHT22;10205;49.678;6.560;2023-07-16T02:16:02;23.30;53.90
20091;DHT22;10205;49.678;6.560;2023-07-16T02:18:29;23.30;53.60
20091;DHT22;10205;49.678;6.560;2023-07-16T02:20:58;23.30;53.60
20091;DHT22;10205;49.678;6.560;2023-07-16T02:23:27;23.30;54.10
20091;DHT22;10205;49.678;6.560;2023-07-16T02:25:55;23.20;53.60
20091;DHT22;10205;49.678;6.560;2023-07-16T02:28:22;23.20;53.60
20091;DHT22;10205;49.678;6.560;2023-07-16T02:30:49;23.30;53.60
20091;DHT22;10205;49.678;6.560;2023-07-16T02:33:17;23.20;53.90
20091;DHT22;10205;49.678;6.560;2023-07-16T02:35:46;23.20;53.90
20091;DHT22;10205;49.678;6.560;2023-07-16T02:38:15;23.20;53.70
20091;DHT22;10205;49.678;6.560;2023-07-16T02:40:43;23.10;53.60
20091;DHT22;10205;49.678;6.560;2023-07-16T02:43:11;23.10;53.50
20091;DHT22;10205;49.678;6.560;2023-07-16T02:45:39;23.10;54.00
20091;DHT22;10205;49.678;6.560;2023-07-16T02:48:07;23.10;53.70
20091;DHT22;10205;49.678;6.560;2023-07-16T02:50:35;23.00;53.70
20091;DHT22;10205;49.678;6.560;2023-07-16T02:53:03;23.00;53.80
20091;DHT22;10205;49.678;6.560;2023-07-16T02:55:33;23.00;53.80
20091;DHT22;10205;49.678;6.560;2023-07-16T02:58:01;23.00;54.00
20091;DHT22;10205;49.678;6.560;2023-07-16T03:00:30;22.90;53.80
20091;DHT22;10205;49.678;6.560;2023-07-16T03:02:58;22.90;53.80
20091;DHT22;10205;49.678;6.560;2023-07-16T03:05:26;22.80;54.00
20091;DHT22;10205;49.678;6.560;2023-07-16T03:07:53;22.80;53.90
20091;DHT22;10205;49.678;6.560;2023-07-16T03:10:21;22.80;54.20
20091;DHT22;10205;49.678;6.560;2023-07-16T03:12:53;22.70;54.00
20091;DHT22;10205;49.678;6.560;2023-07-16T03:15:21;22.70;54.00
20091;DHT22;10205;49.678;6.560;2023-07-16T03:17:48;22.70;54.20
20091;DHT22;10205;49.678;6.560;2023-07-16T03:20:15;22.70;54.20
20091;DHT22;10205;49.678;6.560;2023-07-16T03:22:43;22.70;54.10
20091;DHT22;10205;49.678;6.560;2023-07-16T03:25:10;22.60;54.00
20091;DHT22;10205;49.678;6.560;2023-07-16T03:27:37;22.60;54.00
20091;DHT22;10205;49.678;6.560;2023-07-16T03:30:07;22.60;54.10
20091;DHT22;10205;49.678;6.560;2023-07-16T03:32:35;22.60;54.20
20091;DHT22;10205;49.678;6.560;2023-07-16T03:35:03;22.60;54.10
20091;DHT22;10205;49.678;6.560;2023-07-16T03:37:31;22.60;54.20
20091;DHT22;10205;49.678;6.560;2023-07-16T03:40:12;22.50;54.30
20091;DHT22;10205;49.678;6.560;2023-07-16T03:42:41;22.50;54.30
20091;DHT22;10205;49.678;6.560;2023-07-16T03:45:10;22.50;54.20
20091;DHT22;10205;49.678;6.560;2023-07-16T03:47:38;22.50;54.30
20091;DHT22;10205;49.678;6.560;2023-07-16T03:50:06;22.50;54.20
20091;DHT22;10205;49.678;6.560;2023-07-16T03:52:35;22.40;54.30
20091;DHT22;10205;49.678;6.560;2023-07-16T03:55:02;22.40;54.20
20091;DHT22;10205;49.678;6.560;2023-07-16T03:57:30;22.30;54.30
20091;DHT22;10205;49.678;6.560;2023-07-16T03:59:57;22.30;54.20
20091;DHT22;10205;49.678;6.560;2023-07-16T04:02:26;22.30;54.30
20091;DHT22;10205;49.678;6.560;2023-07-16T04:04:53;22.20;54.30
20091;DHT22;10205;49.678;6.560;2023-07-16T04:07:20;22.20;54.70
20091;DHT22;10205;49.678;6.560;2023-07-16T04:09:48;22.20;54.40
20091;DHT22;10205;49.678;6.560;2023-07-16T04:12:15;22.10;54.40
20091;DHT22;10205;49.678;6.560;2023-07-16T04:14:43;22.10;54.70
20091;DHT22;10205;49.678;6.560;2023-07-16T04:17:10;22.10;54.80
20091;DHT22;10205;49.678;6.560;2023-07-16T04:19:39;22.00;54.50
20091;DHT22;10205;49.678;6.560;2023-07-16T04:22:06;22.00;55.00
20091;DHT22;10205;49.678;6.560;2023-07-16T04:24:33;21.90;54.90
20091;DHT22;10205;49.678;6.560;2023-07-16T04:27:01;21.90;54.80
20091;DHT22;10205;49.678;6.560;2023-07-16T04:29:28;21.90;55.30
20091;DHT22;10205;49.678;6.560;2023-07-16T04:31:55;21.90;54.90
20091;DHT22;10205;49.678;6.560;2023-07-16T04:34:22;21.90;55.10
20091;DHT22;10205;49.678;6.560;2023-07-16T04:36:51;21.80;55.10
20091;DHT22;10205;49.678;6.560;2023-07-16T04:39:18;21.80;55.20
20091;DHT22;10205;49.678;6.560;2023-07-16T04:41:45;21.70;55.10
20091;DHT22;10205;49.678;6.560;2023-07-16T04:44:13;21.70;55.00
20091;DHT22;10205;49.678;6.560;2023-07-16T04:46:40;21.70;55.30
20091;DHT22;10205;49.678;6.560;2023-07-16T04:49:07;21.70;55.20
20091;DHT22;10205;49.678;6.560;2023-07-16T04:51:35;21.70;56.30
20091;DHT22;10205;49.678;6.560;2023-07-16T04:54:03;21.70;55.40
20091;DHT22;10205;49.678;6.560;2023-07-16T04:56:31;21.60;55.40
20091;DHT22;10205;49.678;6.560;2023-07-16T04:58:58;21.60;55.30
20091;DHT22;10205;49.678;6.560;2023-07-16T05:01:25;21.60;55.40
20091;DHT22;10205;49.678;6.560;2023-07-16T05:03:52;21.60;55.40
20091;DHT22;10205;49.678;6.560;2023-07-16T05:06:20;21.60;55.60
20091;DHT22;10205;49.678;6.560;2023-07-16T05:08:47;21.50;55.40
20091;DHT22;10205;49.678;6.560;2023-07-16T05:11:16;21.60;55.70
20091;DHT22;10205;49.678;6.560;2023-07-16T05:13:43;21.50;55.40
20091;DHT22;10205;49.678;6.560;2023-07-16T05:16:10;21.50;55.60
20091;DHT22;10205;49.678;6.560;2023-07-16T05:18:38;21.50;55.50
20091;DHT22;10205;49.678;6.560;2023-07-16T05:21:05;21.50;55.60
20091;DHT22;10205;49.678;6.560;2023-07-16T05:23:32;21.40;55.40
20091;DHT22;10205;49.678;6.560;2023-07-16T05:25:59;21.40;55.40
20091;DHT22;10205;49.678;6.560;2023-07-16T05:28:28;21.40;55.50
20091;DHT22;10205;49.678;6.560;2023-07-16T05:30:59;21.40;55.60
20091;DHT22;10205;49.678;6.560;2023-07-16T05:33:26;21.40;55.60
20091;DHT22;10205;49.678;6.560;2023-07-16T05:35:54;21.40;55.80
20091;DHT22;10205;49.678;6.560;2023-07-16T05:38:22;21.40;55.60
20091;DHT22;10205;49.678;6.560;2023-07-16T05:40:50;21.30;55.60
20091;DHT22;10205;49.678;6.560;2023-07-16T05:43:17;21.30;55.90
20091;DHT22;10205;49.678;6.560;2023-07-16T05:45:46;21.30;55.70
20091;DHT22;10205;49.678;6.560;2023-07-16T05:48:14;21.40;55.70
20091;DHT22;10205;49.678;6.560;2023-07-16T05:50:43;21.40;55.60
20091;DHT22;10205;49.678;6.560;2023-07-16T05:53:11;21.40;55.50
20091;DHT22;10205;49.678;6.560;2023-07-16T05:55:39;21.40;55.60
20091;DHT22;10205;49.678;6.560;2023-07-16T05:58:07;21.40;55.50
20091;DHT22;10205;49.678;6.560;2023-07-16T06:00:34;21.40;55.60
20091;DHT22;10205;49.678;6.560;2023-07-16T06:03:03;21.40;55.40
20091;DHT22;10205;49.678;6.560;2023-07-16T06:05:30;21.40;55.40
20091;DHT22;10205;49.678;6.560;2023-07-16T06:07:59;21.50;55.70
20091;DHT22;10205;49.678;6.560;2023-07-16T06:10:27;21.50;55.40
20091;DHT22;10205;49.678;6.560;2023-07-16T06:12:54;21.50;55.50
20091;DHT22;10205;49.678;6.560;2023-07-16T06:15:21;21.50;55.40
20091;DHT22;10205;49.678;6.560;2023-07-16T06:17:49;21.50;55.40
20091;DHT22;10205;49.678;6.560;2023-07-16T06:20:18;21.50;55.30
20091;DHT22;10205;49.678;6.560;2023-07-16T06:22:45;21.50;55.30
20091;DHT22;10205;49.678;6.560;2023-07-16T06:25:12;21.60;55.30
20091;DHT22;10205;49.678;6.560;2023-07-16T06:27:40;21.60;55.50
20091;DHT22;10205;49.678;6.560;2023-07-16T06:30:07;21.60;55.40
20091;DHT22;10205;49.678;6.560;2023-07-16T06:32:35;21.60;55.40
20091;DHT22;10205;49.678;6.560;2023-07-16T06:35:02;21.70;55.40
20091;DHT22;10205;49.678;6.560;2023-07-16T06:37:32;21.70;55.30
20091;DHT22;10205;49.678;6.560;2023-07-16T06:39:59;21.70;55.40
20091;DHT22;10205;49.678;6.560;2023-07-16T06:42:26;21.70;55.20
20091;DHT22;10205;49.678;6.560;2023-07-16T06:44:54;21.80;55.20
20091;DHT22;10205;49.678;6.560;2023-07-16T06:47:21;21.80;55.20
20091;DHT22;10205;49.678;6.560;2023-07-16T06:49:48;21.80;55.20
20091;DHT22;10205;49.678;6.560;2023-07-16T06:52:21;21.90;55.10
20091;DHT22;10205;49.678;6.560;2023-07-16T06:54:54;21.90;55.10
20091;DHT22;10205;49.678;6.560;2023-07-16T06:57:21;22.00;55.10
20091;DHT22;10205;49.678;6.560;2023-07-16T06:59:49;22.00;55.20
20091;DHT22;10205;49.678;6.560;2023-07-16T07:02:17;22.00;55.20
20091;DHT22;10205;49.678;6.560;2023-07-16T07:04:44;22.10;55.20
20091;DHT22;10205;49.678;6.560;2023-07-16T07:07:12;22.10;55.00
20091;DHT22;10205;49.678;6.560;2023-07-16T07:09:39;22.20;54.90
20091;DHT22;10205;49.678;6.560;2023-07-16T07:12:08;22.20;54.90
20091;DHT22;10205;49.678;6.560;2023-07-16T07:14:35;22.30;54.70
20091;DHT22;10205;49.678;6.560;2023-07-16T07:17:03;22.30;54.70
20091;DHT22;10205;49.678;6.560;2023-07-16T07:19:30;22.30;54.70
20091;DHT22;10205;49.678;6.560;2023-07-16T07:21:58;22.40;54.60
20091;DHT22;10205;49.678;6.560;2023-07-16T07:24:27;22.50;54.60
20091;DHT22;10205;49.678;6.560;2023-07-16T07:26:54;22.50;54.50
20091;DHT22;10205;49.678;6.560;2023-07-16T07:29:23;22.60;54.40
20091;DHT22;10205;49.678;6.560;2023-07-16T07:31:51;22.60;54.30
20091;DHT22;10205;49.678;6.560;2023-07-16T07:34:19;22.60;54.20
20091;DHT22;10205;49.678;6.560;2023-07-16T07:36:46;22.70;54.20
20091;DHT22;10205;49.678;6.560;2023-07-16T07:39:14;22.70;54.20
20091;DHT22;10205;49.678;6.560;2023-07-16T07:41:42;22.80;54.10
20091;DHT22;10205;49.678;6.560;2023-07-16T07:44:09;22.80;54.10
20091;DHT22;10205;49.678;6.560;2023-07-16T07:46:38;22.80;54.00
20091;DHT22;10205;49.678;6.560;2023-07-16T07:49:05;22.90;54.00
20091;DHT22;10205;49.678;6.560;2023-07-16T07:51:32;22.90;54.00
20091;DHT22;10205;49.678;6.560;2023-07-16T07:54:00;23.00;53.90
20091;DHT22;10205;49.678;6.560;2023-07-16T07:56:27;23.00;53.80
20091;DHT22;10205;49.678;6.560;2023-07-16T07:58:55;23.10;53.80
20091;DHT22;10205;49.678;6.560;2023-07-16T08:01:23;23.10;53.70
20091;DHT22;10205;49.678;6.560;2023-07-16T08:03:51;23.20;53.60
20091;DHT22;10205;49.678;6.560;2023-07-16T08:06:19;23.30;53.50
20091;DHT22;10205;49.678;6.560;2023-07-16T08:08:46;23.40;53.40
20091;DHT22;10205;49.678;6.560;2023-07-16T08:11:13;23.40;53.30
20091;DHT22;10205;49.678;6.560;2023-07-16T08:13:40;23.50;53.20
20091;DHT22;10205;49.678;6.560;2023-07-16T08:16:08;23.50;53.00
20091;DHT22;10205;49.678;6.560;2023-07-16T08:18:35;23.60;52.90
20091;DHT22;10205;49.678;6.560;2023-07-16T08:21:04;23.70;52.70
20091;DHT22;10205;49.678;6.560;2023-07-16T08:23:31;23.70;52.60
20091;DHT22;10205;49.678;6.560;2023-07-16T08:25:58;23.80;52.70
20091;DHT22;10205;49.678;6.560;2023-07-16T08:28:25;23.80;52.40
20091;DHT22;10205;49.678;6.560;2023-07-16T08:30:53;23.90;52.40
20091;DHT22;10205;49.678;6.560;2023-07-16T08:33:20;23.90;52.10
20091;DHT22;10205;49.678;6.560;2023-07-16T08:35:47;24.00;51.80
20091;DHT22;10205;49.678;6.560;2023-07-16T08:38:16;24.00;51.80
20091;DHT22;10205;49.678;6.560;2023-07-16T08:40:47;24.10;52.00
20091;DHT22;10205;49.678;6.560;2023-07-16T08:43:16;24.10;51.50
20091;DHT22;10205;49.678;6.560;2023-07-16T08:45:44;24.20;51.50
20091;DHT22;10205;49.678;6.560;2023-07-16T08:48:13;24.30;51.50
20091;DHT22;10205;49.678;6.560;2023-07-16T08:50:42;24.40;51.30
20091;DHT22;10205;49.678;6.560;2023-07-16T08:53:16;24.40;51.40
20091;DHT22;10205;49.678;6.560;2023-07-16T08:55:44;24.50;51.20
20091;DHT22;10205;49.678;6.560;2023-07-16T08:58:12;24.60;51.10
20091;DHT22;10205;49.678;6.560;2023-07-16T09:00:42;24.60;50.80
20091;DHT22;10205;49.678;6.560;2023-07-16T09:03:11;24.70;50.50
20091;DHT22;10205;49.678;6.560;2023-07-16T09:05:39;24.80;50.40
20091;DHT22;10205;49.678;6.560;2023-07-16T09:08:07;24.90;50.50
20091;DHT22;10205;49.678;6.560;2023-07-16T09:10:35;25.00;50.20
20091;DHT22;10205;49.678;6.560;2023-07-16T09:13:03;25.00;49.90
20091;DHT22;10205;49.678;6.560;2023-07-16T09:15:30;25.10;49.70
20091;DHT22;10205;49.678;6.560;2023-07-16T09:17:59;25.10;49.70
20091;DHT22;10205;49.678;6.560;2023-07-16T09:20:27;25.20;49.00
20091;DHT22;10205;49.678;6.560;2023-07-16T09:22:56;25.20;49.10
20091;DHT22;10205;49.678;6.560;2023-07-16T09:25:27;25.30;49.30
20091;DHT22;10205;49.678;6.560;2023-07-16T09:27:58;25.40;48.60
20091;DHT22;10205;49.678;6.560;2023-07-16T09:30:31;25.40;48.50
20091;DHT22;10205;49.678;6.560;2023-07-16T09:33:09;25.50;49.20
20091;DHT22;10205;49.678;6.560;2023-07-16T09:35:38;25.60;48.40
20091;DHT22;10205;49.678;6.560;2023-07-16T09:38:07;25.70;48.60
20091;DHT22;10205;49.678;6.560;2023-07-16T09:40:35;25.80;48.40
20091;DHT22;10205;49.678;6.560;2023-07-16T09:43:06;25.80;48.40
20091;DHT22;10205;49.678;6.560;2023-07-16T09:45:33;25.90;48.30
20091;DHT22;10205;49.678;6.560;2023-07-16T09:48:01;25.90;47.60
20091;DHT22;10205;49.678;6.560;2023-07-16T09:50:31;26.00;47.60
20091;DHT22;10205;49.678;6.560;2023-07-16T09:53:00;26.10;47.20
20091;DHT22;10205;49.678;6.560;2023-07-16T09:55:31;26.10;47.40
20091;DHT22;10205;49.678;6.560;2023-07-16T09:58:01;26.20;47.10
20091;DHT22;10205;49.678;6.560;2023-07-16T10:00:33;26.20;47.10
20091;DHT22;10205;49.678;6.560;2023-07-16T10:03:02;26.30;47.00
20091;DHT22;10205;49.678;6.560;2023-07-16T10:05:35;26.30;47.00
20091;DHT22;10205;49.678;6.560;2023-07-16T10:08:04;26.40;46.60
20091;DHT22;10205;49.678;6.560;2023-07-16T10:10:39;26.50;46.60
20091;DHT22;10205;49.678;6.560;2023-07-16T10:13:08;26.50;46.10
20091;DHT22;10205;49.678;6.560;2023-07-16T10:15:39;26.60;46.20
20091;DHT22;10205;49.678;6.560;2023-07-16T10:18:25;26.60;45.80
20091;DHT22;10205;49.678;6.560;2023-07-16T10:21:02;26.70;45.00
20091;DHT22;10205;49.678;6.560;2023-07-16T10:23:39;26.80;45.80
20091;DHT22;10205;49.678;6.560;2023-07-16T10:26:08;26.80;44.90
20091;DHT22;10205;49.678;6.560;2023-07-16T10:28:38;26.90;45.60
20091;DHT22;10205;49.678;6.560;2023-07-16T10:31:16;26.90;45.40
20091;DHT22;10205;49.678;6.560;2023-07-16T10:33:44;26.90;45.20
20091;DHT22;10205;49.678;6.560;2023-07-16T10:36:18;27.00;45.00
20091;DHT22;10205;49.678;6.560;2023-07-16T10:38:46;27.00;44.80
20091;DHT22;10205;49.678;6.560;2023-07-16T10:41:13;27.10;44.70
20091;DHT22;10205;49.678;6.560;2023-07-16T10:43:42;27.10;44.90
20091;DHT22;10205;49.678;6.560;2023-07-16T10:46:10;27.20;44.90
20091;DHT22;10205;49.678;6.560;2023-07-16T10:48:37;27.20;44.30
20091;DHT22;10205;49.678;6.560;2023-07-16T10:51:04;27.20;44.30
20091;DHT22;10205;49.678;6.560;2023-07-16T10:53:32;27.30;44.40
20091;DHT22;10205;49.678;6.560;2023-07-16T10:55:59;27.30;44.30
20091;DHT22;10205;49.678;6.560;2023-07-16T10:58:26;27.40;44.40
20091;DHT22;10205;49.678;6.560;2023-07-16T11:00:55;27.40;44.40
20091;DHT22;10205;49.678;6.560;2023-07-16T11:03:23;27.50;44.30
20091;DHT22;10205;49.678;6.560;2023-07-16T11:05:50;27.50;44.20
20091;DHT22;10205;49.678;6.560;2023-07-16T11:08:23;27.50;43.90
20091;DHT22;10205;49.678;6.560;2023-07-16T11:10:55;27.60;43.70
20091;DHT22;10205;49.678;6.560;2023-07-16T11:13:26;27.60;43.70
20091;DHT22;10205;49.678;6.560;2023-07-16T11:15:56;27.60;43.40
20091;DHT22;10205;49.678;6.560;2023-07-16T11:18:24;27.60;43.30
20091;DHT22;10205;49.678;6.560;2023-07-16T11:20:54;27.70;43.50
20091;DHT22;10205;49.678;6.560;2023-07-16T11:23:23;27.70;43.20
20091;DHT22;10205;49.678;6.560;2023-07-16T11:25:52;27.70;43.20
20091;DHT22;10205;49.678;6.560;2023-07-16T11:28:19;27.80;43.40
20091;DHT22;10205;49.678;6.560;2023-07-16T11:30:47;27.80;42.40
20091;DHT22;10205;49.678;6.560;2023-07-16T11:33:16;27.90;42.90
20091;DHT22;10205;49.678;6.560;2023-07-16T11:35:43;27.90;42.80
20091;DHT22;10205;49.678;6.560;2023-07-16T11:38:10;27.90;42.40
20091;DHT22;10205;49.678;6.560;2023-07-16T11:40:39;28.00;42.60
20091;DHT22;10205;49.678;6.560;2023-07-16T11:43:10;28.10;42.60
20091;DHT22;10205;49.678;6.560;2023-07-16T11:45:38;28.10;42.20
20091;DHT22;10205;49.678;6.560;2023-07-16T11:48:05;28.10;42.80
20091;DHT22;10205;49.678;6.560;2023-07-16T11:50:34;28.10;42.10
20091;DHT22;10205;49.678;6.560;2023-07-16T11:53:02;28.20;41.70
20091;DHT22;10205;49.678;6.560;2023-07-16T11:55:29;28.20;42.00
20091;DHT22;10205;49.678;6.560;2023-07-16T11:57:56;28.20;41.80
20091;DHT22;10205;49.678;6.560;2023-07-16T12:00:25;28.30;41.90
20091;DHT22;10205;49.678;6.560;2023-07-16T12:02:52;28.30;41.80
20091;DHT22;10205;49.678;6.560;2023-07-16T12:05:20;28.40;41.70
20091;DHT22;10205;49.678;6.560;2023-07-16T12:07:51;28.40;41.40
20091;DHT22;10205;49.678;6.560;2023-07-16T12:10:18;28.50;41.20
20091;DHT22;10205;49.678;6.560;2023-07-16T12:12:46;28.50;41.00
20091;DHT22;10205;49.678;6.560;2023-07-16T12:15:13;28.60;40.90
20091;DHT22;10205;49.678;6.560;2023-07-16T12:17:40;28.70;41.00
20091;DHT22;10205;49.678;6.560;2023-07-16T12:20:08;28.70;40.90
20091;DHT22;10205;49.678;6.560;2023-07-16T12:22:36;28.80;40.50
20091;DHT22;10205;49.678;6.560;2023-07-16T12:25:06;28.80;40.40
20091;DHT22;10205;49.678;6.560;2023-07-16T12:27:33;28.90;40.30
20091;DHT22;10205;49.678;6.560;2023-07-16T12:30:01;28.90;40.00
20091;DHT22;10205;49.678;6.560;2023-07-16T12:32:28;29.00;40.10
20091;DHT22;10205;49.678;6.560;2023-07-16T12:34:56;29.10;39.80
20091;DHT22;10205;49.678;6.560;2023-07-16T12:37:23;29.10;39.50
20091;DHT22;10205;49.678;6.560;2023-07-16T12:39:50;29.20;39.50
20091;DHT22;10205;49.678;6.560;2023-07-16T12:42:19;29.30;40.50
20091;DHT22;10205;49.678;6.560;2023-07-16T12:44:46;29.30;39.60
20091;DHT22;10205;49.678;6.560;2023-07-16T12:47:15;29.30;39.40
20091;DHT22;10205;49.678;6.560;2023-07-16T12:49:42;29.40;39.00
20091;DHT22;10205;49.678;6.560;2023-07-16T12:52:09;29.40;39.30
20091;DHT22;10205;49.678;6.560;2023-07-16T12:54:36;29.50;38.80
20091;DHT22;10205;49.678;6.560;2023-07-16T12:57:05;29.50;38.70
20091;DHT22;10205;49.678;6.560;2023-07-16T12:59:34;29.60;38.30
20091;DHT22;10205;49.678;6.560;2023-07-16T13:02:01;29.70;38.10
20091;DHT22;10205;49.678;6.560;2023-07-16T13:04:28;29.70;38.70
20091;DHT22;10205;49.678;6.560;2023-07-16T13:06:56;29.80;38.50
20091;DHT22;10205;49.678;6.560;2023-07-16T13:09:23;29.80;38.30
20091;DHT22;10205;49.678;6.560;2023-07-16T13:11:50;29.90;37.70
20091;DHT22;10205;49.678;6.560;2023-07-16T13:14:19;29.90;38.30
20091;DHT22;10205;49.678;6.560;2023-07-16T13:16:47;29.90;38.10
20091;DHT22;10205;49.678;6.560;2023-07-16T13:19:15;29.90;37.80
20091;DHT22;10205;49.678;6.560;2023-07-16T13:21:42;30.00;37.40
20091;DHT22;10205;49.678;6.560;2023-07-16T13:24:09;30.00;37.70
20091;DHT22;10205;49.678;6.560;2023-07-16T13:26:37;30.10;38.00
20091;DHT22;10205;49.678;6.560;2023-07-16T13:29:04;30.10;38.10
20091;DHT22;10205;49.678;6.560;2023-07-16T13:31:31;30.10;37.80
20091;DHT22;10205;49.678;6.560;2023-07-16T13:34:00;30.10;37.80
20091;DHT22;10205;49.678;6.560;2023-07-16T13:36:27;30.20;37.50
20091;DHT22;10205;49.678;6.560;2023-07-16T13:38:55;30.20;37.60
20091;DHT22;10205;49.678;6.560;2023-07-16T13:41:22;30.20;37.80
20091;DHT22;10205;49.678;6.560;2023-07-16T13:43:49;30.30;37.60
20091;DHT22;10205;49.678;6.560;2023-07-16T13:46:17;30.30;37.30
20091;DHT22;10205;49.678;6.560;2023-07-16T13:48:44;30.40;37.10
20091;DHT22;10205;49.678;6.560;2023-07-16T13:51:13;30.40;36.50
20091;DHT22;10205;49.678;6.560;2023-07-16T13:53:40;30.50;37.00
20091;DHT22;10205;49.678;6.560;2023-07-16T13:56:08;30.50;36.40
20091;DHT22;10205;49.678;6.560;2023-07-16T13:58:35;30.50;36.10
20091;DHT22;10205;49.678;6.560;2023-07-16T14:01:02;30.50;36.50
20091;DHT22;10205;49.678;6.560;2023-07-16T14:03:29;30.50;36.80
20091;DHT22;10205;49.678;6.560;2023-07-16T14:05:57;30.50;36.80
20091;DHT22;10205;49.678;6.560;2023-07-16T14:08:25;30.50;37.00
20091;DHT22;10205;49.678;6.560;2023-07-16T14:10:54;30.50;36.40
20091;DHT22;10205;49.678;6.560;2023-07-16T14:13:21;30.60;36.80
20091;DHT22;10205;49.678;6.560;2023-07-16T14:15:48;30.60;37.00
20091;DHT22;10205;49.678;6.560;2023-07-16T14:18:15;30.60;36.80
20091;DHT22;10205;49.678;6.560;2023-07-16T14:20:43;30.60;36.70
20091;DHT22;10205;49.678;6.560;2023-07-16T14:23:10;30.60;36.50
20091;DHT22;10205;49.678;6.560;2023-07-16T14:25:39;30.70;36.60
20091;DHT22;10205;49.678;6.560;2023-07-16T14:28:06;30.70;36.40
20091;DHT22;10205;49.678;6.560;2023-07-16T14:30:33;30.80;36.10
20091;DHT22;10205;49.678;6.560;2023-07-16T14:33:02;30.80;36.60
20091;DHT22;10205;49.678;6.560;2023-07-16T14:35:30;30.80;36.40
20091;DHT22;10205;49.678;6.560;2023-07-16T14:38:00;30.80;35.80
20091;DHT22;10205;49.678;6.560;2023-07-16T14:40:27;30.90;35.80
20091;DHT22;10205;49.678;6.560;2023-07-16T14:42:55;30.90;35.80
20091;DHT22;10205;49.678;6.560;2023-07-16T14:45:23;30.90;36.30
20091;DHT22;10205;49.678;6.560;2023-07-16T14:47:50;31.00;35.90
20091;DHT22;10205;49.678;6.560;2023-07-16T14:50:17;31.00;35.30
20091;DHT22;10205;49.678;6.560;2023-07-16T14:52:45;31.10;36.10
20091;DHT22;10205;49.678;6.560;2023-07-16T14:55:12;31.10;35.90
20091;DHT22;10205;49.678;6.560;2023-07-16T14:57:40;31.10;36.00
20091;DHT22;10205;49.678;6.560;2023-07-16T15:00:10;31.20;35.70
20091;DHT22;10205;49.678;6.560;2023-07-16T15:02:39;31.20;35.90
20091;DHT22;10205;49.678;6.560;2023-07-16T15:05:07;31.30;35.20
20091;DHT22;10205;49.678;6.560;2023-07-16T15:07:35;31.20;35.60
20091;DHT22;10205;49.678;6.560;2023-07-16T15:10:03;31.30;35.60
20091;DHT22;10205;49.678;6.560;2023-07-16T15:12:31;31.30;35.10
20091;DHT22;10205;49.678;6.560;2023-07-16T15:14:58;31.30;34.90
20091;DHT22;10205;49.678;6.560;2023-07-16T15:17:27;31.30;35.20
20091;DHT22;10205;49.678;6.560;2023-07-16T15:19:54;31.30;34.90
20091;DHT22;10205;49.678;6.560;2023-07-16T15:22:22;31.30;35.20
20091;DHT22;10205;49.678;6.560;2023-07-16T15:24:49;31.40;35.50
20091;DHT22;10205;49.678;6.560;2023-07-16T15:27:17;31.40;35.30
20091;DHT22;10205;49.678;6.560;2023-07-16T15:29:44;31.40;35.50
20091;DHT22;10205;49.678;6.560;2023-07-16T15:32:13;31.40;34.30
20091;DHT22;10205;49.678;6.560;2023-07-16T15:34:52;31.40;34.90
20091;DHT22;10205;49.678;6.560;2023-07-16T15:37:33;31.40;35.20